createdAt,value
2018-05-04T00:01:30.108Z,19.30
2018-05-04T00:03:57.793Z,19.26
2018-05-04T00:06:25.505Z,19.20
2018-05-04T00:08:53.187Z,19.21
2018-05-04T00:11:20.843Z,19.13
2018-05-04T00:13:48.474Z,19.17
2018-05-04T00:16:16.173Z,19.21
2018-05-04T00:18:43.923Z,19.02
2018-05-04T00:21:11.622Z,19.00
2018-05-04T00:23:39.246Z,18.98
2018-05-04T00:26:06.913Z,18.78
2018-05-04T00:28:34.553Z,18.77
2018-05-04T00:31:02.162Z,18.85
2018-05-04T00:33:29.771Z,18.73
2018-05-04T00:35:57.357Z,18.78
2018-05-04T00:38:24.941Z,18.71
2018-05-04T00:40:52.561Z,18.64
2018-05-04T00:43:20.184Z,18.73
2018-05-04T00:45:47.801Z,18.72
2018-05-04T00:48:15.410Z,18.69
2018-05-04T00:50:43.037Z,18.75
2018-05-04T00:53:10.642Z,18.70
2018-05-04T00:55:38.236Z,18.66
2018-05-04T00:58:05.853Z,18.63
2018-05-04T01:00:33.459Z,18.71
2018-05-04T01:03:01.049Z,18.61
2018-05-04T01:05:28.663Z,18.58
2018-05-04T01:07:56.253Z,18.52
2018-05-04T01:10:23.853Z,18.52
2018-05-04T01:12:51.492Z,18.41
2018-05-04T01:15:19.122Z,18.47
2018-05-04T01:17:46.776Z,18.37
2018-05-04T01:20:14.490Z,18.39
2018-05-04T01:22:42.137Z,18.34
2018-05-04T01:25:09.785Z,18.26
2018-05-04T01:27:37.497Z,18.23
2018-05-04T01:30:05.166Z,18.20
2018-05-04T01:32:32.833Z,18.10
2018-05-04T01:35:00.537Z,18.24
2018-05-04T01:37:28.261Z,18.16
2018-05-04T01:39:55.910Z,18.10
2018-05-04T01:42:23.557Z,17.96
2018-05-04T01:44:51.246Z,18.00
2018-05-04T01:47:18.969Z,17.94
2018-05-04T01:49:46.604Z,17.93
2018-05-04T01:52:14.222Z,18.00
2018-05-04T01:54:41.932Z,17.87
2018-05-04T01:57:09.637Z,17.87
2018-05-04T01:59:37.265Z,17.83
2018-05-04T02:02:04.908Z,17.88
2018-05-04T02:04:32.647Z,17.85
2018-05-04T02:07:00.273Z,17.87
2018-05-04T02:09:27.895Z,17.88
2018-05-04T02:11:55.578Z,17.91
2018-05-04T02:14:23.216Z,17.97
2018-05-04T02:16:50.869Z,17.95
2018-05-04T02:19:18.546Z,18.02
2018-05-04T02:21:46.220Z,17.89
2018-05-04T02:24:13.938Z,17.73
2018-05-04T02:26:41.554Z,17.70
2018-05-04T02:29:09.210Z,17.85
2018-05-04T02:31:36.858Z,17.85
2018-05-04T02:34:04.481Z,17.76
2018-05-04T02:36:32.098Z,17.81
2018-05-04T02:38:59.802Z,17.88
2018-05-04T02:41:27.423Z,17.82
2018-05-04T02:43:55.106Z,17.70
2018-05-04T02:46:22.750Z,17.67
2018-05-04T02:48:50.405Z,17.69
2018-05-04T02:51:18.090Z,17.61
2018-05-04T02:53:45.758Z,17.66
2018-05-04T02:56:13.383Z,17.52
2018-05-04T02:58:41.046Z,17.57
2018-05-04T03:01:08.721Z,17.44
2018-05-04T03:03:36.498Z,17.53
2018-05-04T03:06:04.181Z,17.45
2018-05-04T03:08:31.831Z,17.41
2018-05-04T03:10:59.549Z,17.41
2018-05-04T03:13:27.241Z,17.35
2018-05-04T03:15:54.894Z,17.22
2018-05-04T03:18:25.119Z,17.32
2018-05-04T03:20:52.882Z,17.36
2018-05-04T03:23:20.644Z,17.21
2018-05-04T03:25:48.330Z,17.34
2018-05-04T03:28:16.002Z,17.32
2018-05-04T03:30:43.742Z,17.40
2018-05-04T03:33:11.414Z,17.13
2018-05-04T03:35:39.101Z,17.17
2018-05-04T03:38:06.781Z,17.27
2018-05-04T03:40:34.454Z,17.35
2018-05-04T03:43:02.090Z,17.20
2018-05-04T03:45:29.723Z,16.97
2018-05-04T03:47:57.369Z,17.01
2018-05-04T03:50:24.985Z,16.87
2018-05-04T03:52:52.610Z,16.91
2018-05-04T03:55:20.290Z,17.10
2018-05-04T03:57:59.569Z,16.88
2018-05-04T04:00:38.870Z,17.16
2018-05-04T04:06:05.937Z,17.11
2018-05-04T04:08:33.574Z,17.12
2018-05-04T04:11:01.158Z,17.15
2018-05-04T04:13:28.765Z,17.22
2018-05-04T04:15:56.423Z,17.19
2018-05-04T04:18:24.013Z,17.25
2018-05-04T04:20:51.606Z,17.08
2018-05-04T04:23:19.249Z,17.19
2018-05-04T04:25:46.853Z,17.17
2018-05-04T04:28:14.571Z,17.16
2018-05-04T04:30:42.137Z,17.16
2018-05-04T04:33:09.728Z,17.25
2018-05-04T04:35:37.388Z,17.29
2018-05-04T04:38:04.990Z,17.54
2018-05-04T04:40:32.589Z,17.66
2018-05-04T04:43:00.181Z,17.64
2018-05-04T04:45:27.882Z,17.78
2018-05-04T04:47:55.589Z,17.74
2018-05-04T04:50:23.209Z,17.58
2018-05-04T04:52:50.850Z,17.77
2018-05-04T04:55:18.543Z,17.77
2018-05-04T04:57:46.177Z,17.99
2018-05-04T05:00:13.790Z,18.02
2018-05-04T05:02:41.474Z,18.04
2018-05-04T05:05:09.086Z,18.00
2018-05-04T05:07:36.710Z,18.20
2018-05-04T05:10:04.393Z,18.35
2018-05-04T05:12:32.011Z,18.51
2018-05-04T05:14:59.642Z,18.52
2018-05-04T05:17:27.234Z,18.60
2018-05-04T05:19:54.838Z,18.68
2018-05-04T05:22:22.558Z,18.73
2018-05-04T05:24:50.221Z,19.00
2018-05-04T05:27:17.832Z,19.23
2018-05-04T05:29:45.521Z,19.32
2018-05-04T05:32:13.189Z,19.49
2018-05-04T05:34:40.845Z,19.44
2018-05-04T05:37:08.509Z,19.38
2018-05-04T05:39:36.242Z,19.51
2018-05-04T05:42:03.841Z,19.63
2018-05-04T05:44:31.479Z,20.13
2018-05-04T05:46:59.089Z,19.85
2018-05-04T05:49:26.694Z,20.19
2018-05-04T05:51:54.449Z,20.54
2018-05-04T05:54:22.002Z,20.76
2018-05-04T05:56:49.613Z,20.90
2018-05-04T05:59:17.240Z,21.16
2018-05-04T06:01:44.829Z,20.78
2018-05-04T06:04:12.417Z,20.73
2018-05-04T06:06:40.097Z,20.64
2018-05-04T06:09:07.726Z,20.49
2018-05-04T06:11:35.871Z,20.62
2018-05-04T06:14:03.561Z,20.41
2018-05-04T06:16:31.222Z,20.38
2018-05-04T06:18:58.848Z,20.27
2018-05-04T06:21:26.487Z,20.49
2018-05-04T06:23:54.077Z,20.56
2018-05-04T06:26:21.681Z,20.65
2018-05-04T06:28:49.323Z,20.61
2018-05-04T06:31:16.909Z,20.51
2018-05-04T06:33:44.581Z,20.70
2018-05-04T06:36:12.241Z,20.51
2018-05-04T06:38:39.921Z,20.59
2018-05-04T06:41:07.519Z,20.41
2018-05-04T06:43:35.157Z,20.52
2018-05-04T06:46:02.832Z,20.71
2018-05-04T06:48:30.453Z,20.52
2018-05-04T06:50:58.221Z,20.55
2018-05-04T06:53:25.939Z,20.65
2018-05-04T06:55:53.606Z,20.70
2018-05-04T06:58:21.240Z,20.87
2018-05-04T07:00:48.858Z,20.94
2018-05-04T07:03:16.493Z,20.98
2018-05-04T07:05:44.189Z,21.19
2018-05-04T07:08:12.520Z,21.20
2018-05-04T07:10:40.189Z,21.56
2018-05-04T07:13:07.869Z,21.80
2018-05-04T07:15:35.512Z,21.77
2018-05-04T07:18:03.221Z,21.62
2018-05-04T07:20:30.896Z,21.41
2018-05-04T07:22:58.593Z,21.88
2018-05-04T07:25:26.251Z,22.58
2018-05-04T07:27:53.942Z,22.71
2018-05-04T07:30:21.712Z,23.12
2018-05-04T07:32:49.367Z,23.17
2018-05-04T07:35:17.094Z,23.65
2018-05-04T07:37:44.793Z,23.64
2018-05-04T07:40:12.426Z,23.69
2018-05-04T07:42:40.066Z,23.68
2018-05-04T07:45:07.718Z,23.79
2018-05-04T07:47:35.445Z,23.54
2018-05-04T07:50:03.113Z,23.85
2018-05-04T07:52:30.721Z,24.16
2018-05-04T07:54:58.353Z,24.56
2018-05-04T07:57:25.973Z,24.98
2018-05-04T07:59:53.601Z,25.43
2018-05-04T08:02:21.189Z,24.92
2018-05-04T08:04:48.781Z,25.36
2018-05-04T08:07:19.378Z,26.22
2018-05-04T08:09:47.014Z,26.43
2018-05-04T08:12:14.601Z,26.66
2018-05-04T08:14:42.189Z,27.56
2018-05-04T08:17:09.821Z,27.27
2018-05-04T08:19:37.409Z,27.13
2018-05-04T08:22:05.032Z,27.10
2018-05-04T08:24:32.678Z,26.63
2018-05-04T08:27:00.269Z,26.41
2018-05-04T08:29:27.873Z,27.04
2018-05-04T08:31:55.541Z,27.52
2018-05-04T08:34:23.181Z,28.13
2018-05-04T08:36:50.806Z,27.81
2018-05-04T08:39:18.434Z,28.93
2018-05-04T08:41:46.107Z,28.97
2018-05-04T08:44:13.850Z,28.47
2018-05-04T08:46:41.521Z,28.76
2018-05-04T08:49:09.208Z,28.10
2018-05-04T08:51:36.804Z,28.92
2018-05-04T08:54:04.474Z,29.27
2018-05-04T08:56:32.154Z,30.54
2018-05-04T08:58:59.783Z,29.04
2018-05-04T09:01:27.450Z,27.68
2018-05-04T09:03:55.118Z,27.64
2018-05-04T09:06:22.794Z,27.50
2018-05-04T09:08:50.431Z,27.00
2018-05-04T09:11:18.074Z,27.68
2018-05-04T09:13:45.855Z,28.32
2018-05-04T09:16:13.490Z,28.78
2018-05-04T09:18:41.129Z,29.43
2018-05-04T09:21:08.794Z,29.81
2018-05-04T09:23:36.458Z,29.71
2018-05-04T09:26:05.342Z,29.02
2018-05-04T09:28:33.007Z,28.40
2018-05-04T09:31:00.746Z,29.08
2018-05-04T09:33:28.302Z,29.47
2018-05-04T09:35:56.027Z,29.75
2018-05-04T09:38:23.738Z,29.38
2018-05-04T09:40:51.478Z,29.63
2018-05-04T09:43:19.146Z,29.55
2018-05-04T09:45:46.810Z,30.03
2018-05-04T09:48:14.542Z,31.01
2018-05-04T09:50:42.186Z,30.55
2018-05-04T09:53:09.855Z,30.41
2018-05-04T09:55:37.554Z,30.90
2018-05-04T09:58:05.195Z,31.53
2018-05-04T10:00:32.814Z,31.41
2018-05-04T10:03:00.551Z,30.96
2018-05-04T10:05:28.197Z,31.19
2018-05-04T10:07:55.781Z,30.82
2018-05-04T10:10:23.370Z,30.68
2018-05-04T10:12:51.031Z,29.54
2018-05-04T10:15:18.710Z,29.11
2018-05-04T10:17:46.346Z,28.66
2018-05-04T10:20:13.974Z,27.96
2018-05-04T10:22:41.582Z,28.32
2018-05-04T10:25:09.253Z,28.71
2018-05-04T10:27:36.905Z,27.95
2018-05-04T10:30:04.598Z,28.15
2018-05-04T10:32:32.334Z,28.80
2018-05-04T10:34:59.950Z,29.82
2018-05-04T10:37:27.541Z,29.68
2018-05-04T10:39:55.243Z,31.08
2018-05-04T10:42:22.925Z,31.29
2018-05-04T10:44:50.574Z,31.19
2018-05-04T10:47:18.218Z,31.47
2018-05-04T10:49:45.841Z,31.21
2018-05-04T10:52:13.594Z,30.99
2018-05-04T10:54:41.282Z,31.13
2018-05-04T10:57:09.079Z,31.25
2018-05-04T10:59:36.780Z,31.46
2018-05-04T11:02:04.476Z,31.54
2018-05-04T11:04:32.109Z,30.63
2018-05-04T11:06:59.823Z,29.79
2018-05-04T11:09:27.470Z,29.76
2018-05-04T11:11:55.295Z,30.37
2018-05-04T11:14:22.982Z,30.41
2018-05-04T11:16:50.623Z,31.11
2018-05-04T11:19:18.294Z,31.50
2018-05-04T11:21:45.954Z,31.65
2018-05-04T11:24:13.626Z,31.45
2018-05-04T11:26:41.287Z,31.23
2018-05-04T11:29:08.946Z,31.12
2018-05-04T11:31:36.573Z,32.03
2018-05-04T11:34:04.181Z,31.85
2018-05-04T11:36:31.817Z,32.48
2018-05-04T11:38:59.453Z,31.43
2018-05-04T11:41:27.154Z,32.09
2018-05-04T11:43:54.954Z,31.87
2018-05-04T11:46:22.678Z,32.51
2018-05-04T11:48:50.300Z,32.27
2018-05-04T11:51:17.951Z,32.02
2018-05-04T11:53:45.573Z,32.11
2018-05-04T11:56:13.161Z,31.17
2018-05-04T11:58:40.792Z,30.94
2018-05-04T12:01:08.413Z,30.74
2018-05-04T12:03:36.093Z,30.66
2018-05-04T12:06:03.856Z,30.63
2018-05-04T12:08:31.486Z,30.55
2018-05-04T12:10:59.125Z,30.74
2018-05-04T12:13:26.962Z,30.80
2018-05-04T12:15:54.675Z,30.91
2018-05-04T12:18:22.284Z,30.97
2018-05-04T12:20:51.462Z,30.73
2018-05-04T12:23:19.052Z,30.77
2018-05-04T12:25:46.645Z,31.12
2018-05-04T12:28:14.249Z,30.67
2018-05-04T12:30:41.856Z,30.81
2018-05-04T12:33:09.550Z,31.38
2018-05-04T12:35:37.130Z,30.52
2018-05-04T12:38:04.860Z,30.52
2018-05-04T12:40:32.471Z,30.56
2018-05-04T12:43:00.118Z,30.81
2018-05-04T12:45:27.776Z,30.79
2018-05-04T12:47:55.414Z,30.27
2018-05-04T12:50:23.126Z,29.63
2018-05-04T12:52:50.766Z,29.70
2018-05-04T12:55:18.397Z,29.96
2018-05-04T12:57:46.121Z,30.05
2018-05-04T13:00:13.821Z,29.21
2018-05-04T13:02:41.447Z,29.06
2018-05-04T13:05:09.108Z,29.32
2018-05-04T13:07:36.722Z,29.05
2018-05-04T13:10:04.362Z,28.68
2018-05-04T13:12:32.055Z,28.60
2018-05-04T13:14:59.784Z,28.29
2018-05-04T13:17:27.473Z,28.16
2018-05-04T13:19:55.213Z,28.07
2018-05-04T13:22:22.882Z,28.39
2018-05-04T13:24:50.586Z,28.43
2018-05-04T13:27:18.286Z,28.55
2018-05-04T13:29:45.895Z,28.59
2018-05-04T13:32:13.526Z,28.69
2018-05-04T13:34:41.273Z,28.82
2018-05-04T13:37:08.902Z,28.72
2018-05-04T13:39:36.538Z,28.88
2018-05-04T13:42:04.274Z,28.79
2018-05-04T13:44:31.948Z,28.60
2018-05-04T13:46:59.614Z,28.38
2018-05-04T13:49:27.310Z,28.40
2018-05-04T13:51:55.010Z,28.50
2018-05-04T13:54:22.673Z,28.27
2018-05-04T13:56:50.377Z,28.00
2018-05-04T13:59:18.057Z,28.07
2018-05-04T14:01:45.757Z,28.15
2018-05-04T14:04:13.422Z,28.03
2018-05-04T14:06:41.138Z,27.83
2018-05-04T14:09:08.803Z,27.89
2018-05-04T14:11:36.482Z,27.48
2018-05-04T14:14:04.118Z,27.53
2018-05-04T14:16:31.806Z,27.70
2018-05-04T14:18:59.498Z,27.86
2018-05-04T14:21:27.146Z,27.79
2018-05-04T14:23:54.809Z,27.68
2018-05-04T14:26:22.490Z,27.86
2018-05-04T14:28:50.183Z,27.92
2018-05-04T14:31:17.856Z,27.91
2018-05-04T14:33:45.577Z,28.11
2018-05-04T14:36:13.190Z,28.18
2018-05-04T14:38:40.824Z,28.23
2018-05-04T14:41:08.557Z,28.15
2018-05-04T14:43:36.250Z,28.10
2018-05-04T14:46:03.947Z,28.17
2018-05-04T14:48:31.615Z,28.12
2018-05-04T14:50:59.285Z,27.96
2018-05-04T14:53:26.916Z,27.94
2018-05-04T14:55:54.634Z,27.76
2018-05-04T14:58:22.250Z,27.91
2018-05-04T15:00:49.878Z,27.98
2018-05-04T15:03:17.586Z,27.85
2018-05-04T15:05:45.225Z,27.64
2018-05-04T15:08:14.541Z,27.75
2018-05-04T15:10:42.325Z,27.77
2018-05-04T15:13:09.970Z,27.72
2018-05-04T15:15:37.591Z,27.88
2018-05-04T15:18:05.358Z,27.81
2018-05-04T15:20:32.936Z,27.61
2018-05-04T15:23:00.557Z,27.56
2018-05-04T15:25:28.263Z,27.45
2018-05-04T15:27:55.894Z,27.36
2018-05-04T15:30:23.497Z,27.09
2018-05-04T15:32:51.160Z,27.09
2018-05-04T15:35:22.730Z,26.94
2018-05-04T15:37:50.357Z,26.92
2018-05-04T15:40:18.090Z,26.99
2018-05-04T15:42:45.785Z,26.79
2018-05-04T15:45:13.434Z,26.87
2018-05-04T15:47:41.138Z,26.74
2018-05-04T15:53:12.952Z,26.54
2018-05-04T15:55:40.590Z,26.55
2018-05-04T15:58:08.194Z,26.39
2018-05-04T16:00:35.821Z,26.41
2018-05-04T16:03:03.419Z,26.36
2018-05-04T16:05:31.013Z,26.38
2018-05-04T16:07:58.657Z,26.31
2018-05-04T16:10:26.241Z,26.34
2018-05-04T16:12:53.854Z,26.23
2018-05-04T16:15:21.516Z,26.05
2018-05-04T16:17:49.102Z,26.05
2018-05-04T16:20:16.700Z,26.09
2018-05-04T16:22:44.322Z,25.90
2018-05-04T16:25:11.914Z,25.90
2018-05-04T16:27:39.525Z,25.75
2018-05-04T16:30:07.189Z,25.74
2018-05-04T16:32:34.808Z,25.75
2018-05-04T16:35:02.402Z,25.74
2018-05-04T16:37:30.022Z,25.59
2018-05-04T16:39:57.605Z,25.57
2018-05-04T16:42:25.217Z,25.46
2018-05-04T16:44:52.871Z,25.36
2018-05-04T16:47:22.350Z,25.34
2018-05-04T16:49:49.939Z,25.23
2018-05-04T16:52:17.589Z,25.33
2018-05-04T16:54:45.563Z,25.07
2018-05-04T16:57:13.313Z,24.99
2018-05-04T16:59:41.010Z,25.08
2018-05-04T17:02:08.648Z,24.91
2018-05-04T17:04:36.351Z,24.89
2018-05-04T17:07:04.471Z,24.77
2018-05-04T17:09:32.161Z,24.61
2018-05-04T17:11:59.877Z,24.64
2018-05-04T17:14:27.570Z,24.63
2018-05-04T17:16:55.258Z,24.57
2018-05-04T17:19:22.997Z,24.53
2018-05-04T17:21:50.710Z,24.52
2018-05-04T17:24:18.634Z,24.37
2018-05-04T17:26:46.407Z,24.40
2018-05-04T17:29:14.077Z,24.36
2018-05-04T17:31:41.836Z,24.18
2018-05-04T17:34:09.598Z,24.10
2018-05-04T17:36:37.279Z,24.17
2018-05-04T17:39:05.646Z,24.05
2018-05-04T17:41:33.270Z,24.01
2018-05-04T17:44:01.010Z,23.98
2018-05-04T17:46:28.718Z,23.94
2018-05-04T17:48:56.427Z,23.90
2018-05-04T17:51:24.126Z,23.83
2018-05-04T17:53:51.813Z,23.78
2018-05-04T17:56:19.502Z,23.75
2018-05-04T17:58:47.177Z,23.75
2018-05-04T18:01:14.829Z,23.63
2018-05-04T18:03:42.458Z,23.70
2018-05-04T18:06:10.070Z,23.66
2018-05-04T18:08:37.714Z,23.54
2018-05-04T18:11:05.357Z,23.43
2018-05-04T18:13:32.998Z,23.38
2018-05-04T18:16:00.701Z,23.28
2018-05-04T18:18:28.335Z,23.21
2018-05-04T18:20:56.045Z,23.15
2018-05-04T18:23:23.678Z,23.12
2018-05-04T18:25:51.314Z,23.00
2018-05-04T18:28:18.971Z,23.06
2018-05-04T18:30:46.705Z,23.02
2018-05-04T18:33:14.348Z,23.01
2018-05-04T18:35:42.052Z,22.89
2018-05-04T18:38:09.725Z,22.77
2018-05-04T18:40:37.326Z,22.70
2018-05-04T18:43:05.014Z,22.76
2018-05-04T18:45:32.634Z,22.68
2018-05-04T18:48:00.270Z,22.84
2018-05-04T18:50:27.866Z,22.78
2018-05-04T18:52:55.473Z,22.63
2018-05-04T18:55:23.101Z,22.55
2018-05-04T18:57:50.704Z,22.42
2018-05-04T19:00:18.398Z,22.40
2018-05-04T19:02:51.660Z,22.38
2018-05-04T19:05:19.268Z,22.35
2018-05-04T19:07:46.909Z,22.40
2018-05-04T19:10:14.576Z,22.36
2018-05-04T19:12:42.273Z,22.29
2018-05-04T19:15:09.924Z,22.27
2018-05-04T19:17:37.649Z,22.28
2018-05-04T19:20:05.327Z,22.22
2018-05-04T19:22:33.086Z,22.26
2018-05-04T19:25:00.746Z,22.22
2018-05-04T19:27:28.337Z,22.20
2018-05-04T19:29:55.976Z,22.21
2018-05-04T19:32:23.630Z,22.19
2018-05-04T19:34:51.239Z,22.01
2018-05-04T19:37:18.850Z,21.89
2018-05-04T19:39:46.530Z,21.85
2018-05-04T19:42:14.222Z,21.90
2018-05-04T19:44:41.888Z,21.90
2018-05-04T19:47:09.509Z,21.83
2018-05-04T19:49:37.131Z,21.74
2018-05-04T19:52:04.733Z,21.77
2018-05-04T19:54:32.382Z,21.81
2018-05-04T19:56:59.989Z,21.62
2018-05-04T19:59:27.623Z,21.54
2018-05-04T20:01:55.257Z,21.43
2018-05-04T20:04:22.846Z,21.36
2018-05-04T20:06:50.433Z,21.27
2018-05-04T20:09:18.069Z,21.21
2018-05-04T20:11:45.672Z,21.28
2018-05-04T20:14:13.289Z,21.21
2018-05-04T20:16:40.961Z,21.32
2018-05-04T20:19:08.593Z,21.30
2018-05-04T20:21:36.189Z,21.22
2018-05-04T20:24:03.850Z,21.20
2018-05-04T20:26:31.442Z,21.24
2018-05-04T20:28:59.029Z,21.18
2018-05-04T20:31:26.689Z,21.11
2018-05-04T20:33:54.285Z,21.11
2018-05-04T20:36:21.986Z,20.88
2018-05-04T20:38:49.754Z,20.94
2018-05-04T20:41:17.418Z,21.00
2018-05-04T20:43:45.025Z,20.83
2018-05-04T20:46:12.718Z,20.92
2018-05-04T20:48:40.461Z,20.92
2018-05-04T20:51:08.096Z,20.92
2018-05-04T20:53:35.790Z,20.87
2018-05-04T20:56:03.470Z,20.72
2018-05-04T20:58:31.158Z,20.70
2018-05-04T21:00:58.906Z,20.71
2018-05-04T21:03:26.582Z,20.69
2018-05-04T21:05:54.253Z,20.88
2018-05-04T21:08:21.918Z,20.95
2018-05-04T21:10:49.550Z,20.87
2018-05-04T21:13:17.206Z,20.78
2018-05-04T21:15:44.875Z,20.70
2018-05-04T21:18:12.534Z,20.68
2018-05-04T21:20:40.130Z,20.80
2018-05-04T21:23:07.859Z,20.69
2018-05-04T21:25:35.642Z,20.69
2018-05-04T21:28:03.292Z,20.65
2018-05-04T21:30:30.994Z,20.61
2018-05-04T21:32:58.725Z,20.54
2018-05-04T21:35:26.379Z,20.52
2018-05-04T21:37:54.173Z,20.44
2018-05-04T21:40:21.806Z,20.32
2018-05-04T21:42:49.472Z,20.30
2018-05-04T21:45:17.209Z,20.45
2018-05-04T21:47:44.914Z,20.51
2018-05-04T21:50:12.594Z,20.48
2018-05-04T21:52:40.333Z,20.50
2018-05-04T21:55:08.035Z,20.46
2018-05-04T21:57:35.738Z,20.39
2018-05-04T22:00:03.446Z,20.30
2018-05-04T22:02:31.114Z,20.33
2018-05-04T22:04:58.755Z,20.35
2018-05-04T22:07:26.466Z,20.29
2018-05-04T22:09:54.147Z,20.25
2018-05-04T22:12:21.779Z,20.23
2018-05-04T22:14:49.505Z,20.25
2018-05-04T22:17:23.126Z,20.30
2018-05-04T22:19:50.837Z,20.24
2018-05-04T22:22:18.520Z,20.21
2018-05-04T22:24:46.216Z,20.12
2018-05-04T22:27:13.908Z,20.13
2018-05-04T22:29:41.590Z,20.11
2018-05-04T22:32:09.245Z,20.02
2018-05-04T22:34:36.986Z,19.94
2018-05-04T22:37:04.646Z,19.91
2018-05-04T22:39:32.369Z,19.93
2018-05-04T22:42:00.034Z,19.92
2018-05-04T22:44:27.710Z,19.93
2018-05-04T22:46:55.368Z,19.91
2018-05-04T22:49:23.103Z,19.94
2018-05-04T22:51:50.745Z,19.80
2018-05-04T22:54:18.457Z,19.79
2018-05-04T22:56:46.117Z,19.78
2018-05-04T22:59:13.844Z,19.76
2018-05-04T23:01:41.517Z,19.77
2018-05-04T23:04:09.209Z,19.68
2018-05-04T23:06:36.933Z,19.64
2018-05-04T23:09:04.674Z,19.56
2018-05-04T23:11:32.330Z,19.57
2018-05-04T23:13:59.949Z,19.58
2018-05-04T23:16:27.589Z,19.50
2018-05-04T23:18:55.211Z,19.43
2018-05-04T23:21:22.830Z,19.40
2018-05-04T23:23:50.489Z,19.45
2018-05-04T23:26:18.141Z,19.43
2018-05-04T23:28:45.869Z,19.33
2018-05-04T23:31:13.549Z,19.26
2018-05-04T23:33:41.198Z,19.28
2018-05-04T23:36:08.855Z,19.24
2018-05-04T23:38:36.526Z,19.26
2018-05-04T23:41:04.137Z,19.15
2018-05-04T23:43:31.759Z,19.09
2018-05-04T23:45:59.378Z,19.08
2018-05-04T23:48:26.982Z,19.15
2018-05-04T23:50:54.647Z,19.02
2018-05-04T23:53:22.349Z,19.10
2018-05-04T23:55:50.017Z,19.04
2018-05-04T23:58:17.689Z,18.88
